createdAt,value
2022-12-24T00:01:40.823Z,8.00
2022-12-24T00:05:45.122Z,8.00
2022-12-24T00:09:47.931Z,8.00
2022-12-24T00:13:50.807Z,8.00
2022-12-24T00:17:53.597Z,8.00
2022-12-24T00:21:57.747Z,8.00
2022-12-24T00:26:00.559Z,8.00
2022-12-24T00:30:03.379Z,8.00
2022-12-24T00:34:06.155Z,8.00
2022-12-24T00:38:10.303Z,8.00
2022-12-24T00:42:13.144Z,8.00
2022-12-24T00:46:16.027Z,8.00
2022-12-24T00:50:18.931Z,8.00
2022-12-24T00:54:23.075Z,8.00
2022-12-24T00:58:25.882Z,7.90
2022-12-24T01:02:28.922Z,7.90
2022-12-24T01:06:31.795Z,8.00
2022-12-24T01:10:35.932Z,8.00
2022-12-24T01:14:39.222Z,8.00
2022-12-24T01:18:42.113Z,8.00
2022-12-24T01:22:44.887Z,8.00
2022-12-24T01:26:49.045Z,8.00
2022-12-24T01:30:51.900Z,8.00
2022-12-24T01:34:54.693Z,8.00
2022-12-24T01:38:57.507Z,8.20
2022-12-24T01:43:19.561Z,8.30
2022-12-24T01:47:23.123Z,8.50
2022-12-24T01:51:28.423Z,8.70
2022-12-24T01:55:31.367Z,9.00
2022-12-24T01:59:36.500Z,9.10
2022-12-24T02:03:39.435Z,9.20
2022-12-24T02:07:43.034Z,9.40
2022-12-24T02:11:46.025Z,9.50
2022-12-24T02:16:01.512Z,9.50
2022-12-24T02:20:12.832Z,9.60
2022-12-24T02:24:26.789Z,9.70
2022-12-24T02:28:39.047Z,9.70
2022-12-24T02:32:48.207Z,9.80
2022-12-24T02:36:54.578Z,9.80
2022-12-24T02:40:59.753Z,9.80
2022-12-24T02:45:03.674Z,9.90
2022-12-24T02:49:07.863Z,9.90
2022-12-24T02:53:11.637Z,9.90
2022-12-24T02:57:18.692Z,9.90
2022-12-24T03:01:25.382Z,10.00
2022-12-24T03:05:32.000Z,10.00
2022-12-24T03:09:39.398Z,10.00
2022-12-24T03:13:42.583Z,10.00
2022-12-24T03:17:47.369Z,10.00
2022-12-24T03:21:52.533Z,10.00
2022-12-24T03:26:00.336Z,10.00
2022-12-24T03:30:04.180Z,10.00
2022-12-24T03:34:06.989Z,10.00
2022-12-24T03:38:11.107Z,10.90
2022-12-24T03:42:13.896Z,10.00
2022-12-24T03:46:16.790Z,10.00
2022-12-24T03:50:19.596Z,10.00
2022-12-24T03:54:23.738Z,10.00
2022-12-24T03:58:27.038Z,10.00
2022-12-24T04:02:30.026Z,9.90
2022-12-24T04:06:32.955Z,9.90
2022-12-24T04:10:37.085Z,9.90
2022-12-24T04:14:39.875Z,9.90
2022-12-24T04:18:43.186Z,9.90
2022-12-24T04:22:46.021Z,9.90
2022-12-24T04:26:50.153Z,9.90
2022-12-24T04:30:52.956Z,9.90
2022-12-24T04:34:55.896Z,9.90
2022-12-24T04:38:58.677Z,9.90
2022-12-24T04:43:02.869Z,9.90
2022-12-24T04:47:05.897Z,9.90
2022-12-24T04:51:09.285Z,9.90
2022-12-24T04:55:12.104Z,9.90
2022-12-24T04:59:16.223Z,9.90
2022-12-24T05:03:19.129Z,9.90
2022-12-24T05:07:21.961Z,9.90
2022-12-24T05:11:25.113Z,9.90
2022-12-24T05:15:29.271Z,9.90
2022-12-24T05:19:32.066Z,9.80
2022-12-24T05:23:52.234Z,9.80
2022-12-24T05:27:55.011Z,9.80
2022-12-24T05:31:59.172Z,9.80
2022-12-24T05:36:01.968Z,9.80
2022-12-24T05:40:05.041Z,9.80
2022-12-24T05:44:07.901Z,9.80
2022-12-24T05:48:12.099Z,9.80
2022-12-24T05:52:14.883Z,9.70
2022-12-24T05:56:18.332Z,9.80
2022-12-24T06:00:21.690Z,9.80
2022-12-24T06:04:29.032Z,9.80
2022-12-24T06:08:32.738Z,9.80
2022-12-24T06:12:35.588Z,9.80
2022-12-24T06:16:38.440Z,9.80
2022-12-24T06:20:42.721Z,9.80
2022-12-24T06:24:45.633Z,9.80
2022-12-24T06:28:48.820Z,9.80
2022-12-24T06:32:51.625Z,9.80
2022-12-24T06:36:55.748Z,9.70
2022-12-24T06:40:58.682Z,9.70
2022-12-24T06:45:07.867Z,9.70
2022-12-24T06:49:11.341Z,9.70
2022-12-24T06:53:15.500Z,9.70
2022-12-24T06:57:27.643Z,9.70
2022-12-24T07:01:30.605Z,9.70
2022-12-24T07:05:33.448Z,9.70
2022-12-24T07:09:37.588Z,9.70
2022-12-24T07:13:40.406Z,9.70
2022-12-24T07:17:43.702Z,9.70
2022-12-24T07:21:47.510Z,9.70
2022-12-24T07:25:51.676Z,9.60
2022-12-24T07:29:54.492Z,9.50
2022-12-24T07:33:57.317Z,9.50
2022-12-24T07:38:00.108Z,9.50
2022-12-24T07:42:05.688Z,9.50
2022-12-24T07:46:08.607Z,9.50
2022-12-24T07:50:11.789Z,9.50
2022-12-24T07:54:14.731Z,9.50
2022-12-24T07:58:18.950Z,9.50
2022-12-24T08:02:22.006Z,9.50
2022-12-24T08:06:24.983Z,9.60
2022-12-24T08:10:27.776Z,9.50
2022-12-24T08:14:32.444Z,9.50
2022-12-24T08:18:35.364Z,9.50
2022-12-24T08:22:38.252Z,9.50
2022-12-24T08:26:41.079Z,9.50
2022-12-24T08:30:45.682Z,9.50
2022-12-24T08:34:48.535Z,9.50
2022-12-24T08:38:51.363Z,9.50
2022-12-24T08:42:54.320Z,9.50
2022-12-24T08:47:11.844Z,9.50
2022-12-24T08:51:14.715Z,9.50
2022-12-24T08:55:17.679Z,9.50
2022-12-24T08:59:20.503Z,9.50
2022-12-24T09:03:27.915Z,9.60
2022-12-24T09:07:31.207Z,9.60
2022-12-24T09:11:34.798Z,9.60
2022-12-24T09:15:37.759Z,9.70
2022-12-24T09:19:41.875Z,9.80
2022-12-24T09:23:45.630Z,9.90
2022-12-24T09:27:48.443Z,10.00
2022-12-24T09:31:51.272Z,10.00
2022-12-24T09:35:55.532Z,10.00
2022-12-24T09:39:58.337Z,10.10
2022-12-24T09:44:03.911Z,10.10
2022-12-24T09:48:10.538Z,10.10
2022-12-24T09:52:16.236Z,10.20
2022-12-24T09:56:21.142Z,10.20
2022-12-24T10:00:25.568Z,10.20
2022-12-24T10:04:30.641Z,10.20
2022-12-24T10:08:37.341Z,10.20
2022-12-24T10:12:47.729Z,10.20
2022-12-24T10:16:57.756Z,10.20
2022-12-24T10:21:04.092Z,10.20
2022-12-24T10:25:16.166Z,10.20
2022-12-24T10:29:21.145Z,10.20
2022-12-24T10:33:28.191Z,10.30
2022-12-24T10:37:31.670Z,10.40
2022-12-24T10:41:36.699Z,10.40
2022-12-24T10:45:42.627Z,10.40
2022-12-24T10:49:46.787Z,10.40
2022-12-24T10:53:50.649Z,10.40
2022-12-24T10:58:02.528Z,10.40
2022-12-24T11:02:05.550Z,10.40
2022-12-24T11:06:10.619Z,10.40
2022-12-24T11:10:24.475Z,10.40
2022-12-24T11:14:34.706Z,10.40
2022-12-24T11:18:38.821Z,10.40
2022-12-24T11:22:42.242Z,10.40
2022-12-24T11:26:45.620Z,10.30
2022-12-24T11:30:59.048Z,10.40
2022-12-24T11:35:06.895Z,10.30
2022-12-24T11:39:16.344Z,10.30
2022-12-24T11:43:20.166Z,10.30
2022-12-24T11:47:32.773Z,10.30
2022-12-24T11:51:35.571Z,10.30
2022-12-24T11:55:42.229Z,10.40
2022-12-24T11:59:47.631Z,10.60
2022-12-24T12:03:53.972Z,10.70
2022-12-24T12:07:59.213Z,10.80
2022-12-24T12:12:03.865Z,10.80
2022-12-24T12:16:12.338Z,10.80
2022-12-24T12:20:19.844Z,10.90
2022-12-24T12:24:31.597Z,10.90
2022-12-24T12:28:38.296Z,11.00
2022-12-24T12:32:47.070Z,11.00
2022-12-24T12:36:53.118Z,11.00
2022-12-24T12:41:02.511Z,11.00
2022-12-24T12:45:17.757Z,11.00
2022-12-24T12:49:27.363Z,11.10
2022-12-24T12:53:37.721Z,11.10
2022-12-24T12:57:40.934Z,11.10
2022-12-24T13:01:46.680Z,11.10
2022-12-24T13:05:59.384Z,11.10
2022-12-24T13:10:15.893Z,11.10
2022-12-24T13:14:26.453Z,11.10
2022-12-24T13:18:45.192Z,11.10
2022-12-24T13:22:52.513Z,11.10
2022-12-24T13:27:05.027Z,11.10
2022-12-24T13:31:25.307Z,11.00
2022-12-24T13:35:38.786Z,10.90
2022-12-24T13:40:00.605Z,10.80
2022-12-24T13:44:05.422Z,10.80
2022-12-24T13:48:15.314Z,10.80
2022-12-24T13:52:20.647Z,10.70
2022-12-24T13:56:26.211Z,10.70
2022-12-24T14:00:33.739Z,10.70
2022-12-24T14:04:37.459Z,10.70
2022-12-24T14:08:42.324Z,10.70
2022-12-24T14:12:47.847Z,10.70
2022-12-24T14:16:52.547Z,10.70
2022-12-24T14:20:57.597Z,10.70
2022-12-24T14:25:02.119Z,10.60
2022-12-24T14:29:07.590Z,10.60
2022-12-24T14:33:25.305Z,10.60
2022-12-24T14:37:34.535Z,10.60
2022-12-24T14:41:43.808Z,10.60
2022-12-24T14:45:49.402Z,10.60
2022-12-24T14:50:00.829Z,10.60
2022-12-24T14:54:15.178Z,10.60
2022-12-24T14:58:19.938Z,10.50
2022-12-24T15:02:40.570Z,10.50
2022-12-24T15:06:47.913Z,10.40
2022-12-24T15:10:53.637Z,10.40
2022-12-24T15:14:56.615Z,10.40
2022-12-24T15:19:01.702Z,10.40
2022-12-24T15:23:04.582Z,10.30
2022-12-24T15:27:16.063Z,10.20
2022-12-24T15:31:20.279Z,10.20
2022-12-24T15:35:44.217Z,10.10
2022-12-24T15:39:53.151Z,10.00
2022-12-24T15:44:01.046Z,10.00
2022-12-24T15:48:09.020Z,9.90
2022-12-24T15:52:12.973Z,9.90
2022-12-24T15:56:30.611Z,9.90
2022-12-24T16:00:34.839Z,9.80
2022-12-24T16:04:37.598Z,9.80
2022-12-24T16:08:40.854Z,9.70
2022-12-24T16:12:43.656Z,9.70
2022-12-24T16:16:48.938Z,9.70
2022-12-24T16:20:53.913Z,9.70
2022-12-24T16:24:56.789Z,9.60
2022-12-24T16:28:59.625Z,9.60
2022-12-24T16:33:03.881Z,9.60
2022-12-24T16:37:07.999Z,9.50
2022-12-24T16:41:10.801Z,9.50
2022-12-24T16:45:13.696Z,9.50
2022-12-24T16:49:19.784Z,9.50
2022-12-24T16:53:23.562Z,9.50
2022-12-24T16:57:26.412Z,9.40
2022-12-24T17:01:29.445Z,9.40
2022-12-24T17:05:33.720Z,9.40
2022-12-24T17:09:36.520Z,9.40
2022-12-24T17:13:39.311Z,9.30
2022-12-24T17:17:42.124Z,9.30
2022-12-24T17:21:46.639Z,9.30
2022-12-24T17:25:49.618Z,9.20
2022-12-24T17:29:52.464Z,9.20
2022-12-24T17:33:55.260Z,9.10
2022-12-24T17:37:59.484Z,9.10
2022-12-24T17:42:02.414Z,9.00
2022-12-24T17:46:05.571Z,8.90
2022-12-24T17:50:09.090Z,8.90
2022-12-24T17:54:13.476Z,8.80
2022-12-24T17:58:16.360Z,8.80
2022-12-24T18:02:19.453Z,8.80
2022-12-24T18:06:22.799Z,8.70
2022-12-24T18:10:27.171Z,8.70
2022-12-24T18:14:30.004Z,8.60
2022-12-24T18:18:32.816Z,8.60
2022-12-24T18:22:35.628Z,8.50
2022-12-24T18:26:40.653Z,8.50
2022-12-24T18:30:43.515Z,8.40
2022-12-24T18:34:46.494Z,8.40
2022-12-24T18:38:52.019Z,8.30
2022-12-24T18:43:01.749Z,8.30
2022-12-24T18:52:22.594Z,8.30
2022-12-24T19:01:25.928Z,8.20
2022-12-24T19:05:33.806Z,8.20
2022-12-24T19:14:20.792Z,8.10
2022-12-24T19:18:25.704Z,8.10
2022-12-24T19:22:38.350Z,8.00
2022-12-24T19:31:54.896Z,7.90
2022-12-24T19:36:00.428Z,7.90
2022-12-24T19:40:03.287Z,7.90
2022-12-24T19:44:06.336Z,7.80
2022-12-24T19:48:09.133Z,7.80
2022-12-24T19:52:18.847Z,7.80
2022-12-24T19:56:30.585Z,7.80
2022-12-24T20:00:33.407Z,7.70
2022-12-24T20:04:36.316Z,7.70
2022-12-24T20:09:14.726Z,7.70
2022-12-24T20:13:19.466Z,7.60
2022-12-24T20:17:22.267Z,7.60
2022-12-24T20:21:25.944Z,7.60
2022-12-24T20:25:28.907Z,7.60
2022-12-24T20:29:37.984Z,7.60
2022-12-24T20:33:41.141Z,7.50
2022-12-24T20:37:46.394Z,7.50
2022-12-24T20:41:49.402Z,7.50
2022-12-24T20:45:54.107Z,7.50
2022-12-24T20:49:57.596Z,7.40
2022-12-24T20:54:04.461Z,7.40
2022-12-24T21:02:29.066Z,7.30
2022-12-24T21:06:32.867Z,7.30
2022-12-24T21:10:35.992Z,7.20
2022-12-24T21:14:38.959Z,7.20
2022-12-24T21:18:43.243Z,7.10
2022-12-24T21:22:47.403Z,7.10
2022-12-24T21:26:50.268Z,7.00
2022-12-24T21:30:55.585Z,7.00
2022-12-24T21:34:59.744Z,6.90
2022-12-24T21:39:02.938Z,6.90
2022-12-24T21:43:07.525Z,6.80
2022-12-24T21:47:11.276Z,6.80
2022-12-24T21:51:15.419Z,6.80
2022-12-24T21:55:18.539Z,6.70
2022-12-24T21:59:26.299Z,6.60
2022-12-24T22:03:29.774Z,6.50
2022-12-24T22:07:51.776Z,6.40
2022-12-24T22:11:55.166Z,6.40
2022-12-24T22:15:58.144Z,6.30
2022-12-24T22:20:01.597Z,6.30
2022-12-24T22:24:06.477Z,6.30
2022-12-24T22:28:09.279Z,6.30
2022-12-24T22:32:12.117Z,6.30
2022-12-24T22:36:14.890Z,6.30
2022-12-24T22:40:19.219Z,6.30
2022-12-24T22:44:22.150Z,6.30
2022-12-24T22:48:25.101Z,6.30
2022-12-24T22:52:28.479Z,6.30
2022-12-24T22:56:37.009Z,6.30
2022-12-24T23:00:44.754Z,6.20
2022-12-24T23:04:47.549Z,6.20
2022-12-24T23:08:50.448Z,6.20
2022-12-24T23:13:15.038Z,6.20
2022-12-24T23:17:18.282Z,6.20
2022-12-24T23:21:21.384Z,6.10
2022-12-24T23:25:24.323Z,6.10
2022-12-24T23:29:28.609Z,6.00
2022-12-24T23:33:31.895Z,6.00
2022-12-24T23:37:35.494Z,5.90
2022-12-24T23:41:38.506Z,5.80
2022-12-24T23:45:46.923Z,5.80
2022-12-24T23:49:49.733Z,5.80
2022-12-24T23:53:53.370Z,5.90
2022-12-24T23:57:56.208Z,5.90
